createdAt,value
2023-01-29T00:00:10.099Z,7.23
2023-01-29T00:02:39.584Z,6.70
2023-01-29T00:05:25.493Z,6.10
2023-01-29T00:07:53.456Z,5.50
2023-01-29T00:10:19.924Z,6.37
2023-01-29T00:12:46.428Z,6.53
2023-01-29T00:15:13.015Z,5.40
2023-01-29T00:17:39.523Z,5.53
2023-01-29T00:20:06.298Z,5.50
2023-01-29T00:22:32.811Z,5.40
2023-01-29T00:24:59.347Z,5.10
2023-01-29T00:27:25.849Z,6.37
2023-01-29T00:30:12.050Z,5.03
2023-01-29T00:32:39.338Z,4.20
2023-01-29T00:35:06.485Z,5.63
2023-01-29T00:37:32.952Z,5.13
2023-01-29T00:39:59.691Z,5.43
2023-01-29T00:42:44.870Z,5.00
2023-01-29T00:45:12.009Z,4.97
2023-01-29T00:47:38.569Z,4.13
2023-01-29T00:50:06.917Z,5.60
2023-01-29T00:52:33.600Z,5.80
2023-01-29T00:55:00.545Z,5.20
2023-01-29T00:57:28.539Z,5.00
2023-01-29T00:59:55.122Z,5.67
2023-01-29T01:02:40.608Z,4.80
2023-01-29T01:05:07.890Z,4.30
2023-01-29T01:07:34.444Z,4.73
2023-01-29T01:10:19.536Z,5.17
2023-01-29T01:12:46.346Z,4.40
2023-01-29T01:15:12.919Z,6.23
2023-01-29T01:17:40.539Z,4.40
2023-01-29T01:20:08.987Z,5.20
2023-01-29T01:22:35.999Z,4.50
2023-01-29T01:25:02.479Z,4.60
2023-01-29T01:27:29.093Z,4.43
2023-01-29T01:29:55.652Z,5.10
2023-01-29T01:32:22.476Z,4.03
2023-01-29T01:34:49.083Z,3.93
2023-01-29T01:37:15.587Z,5.20
2023-01-29T01:39:42.093Z,5.03
2023-01-29T01:42:14.798Z,5.07
2023-01-29T01:44:54.922Z,6.30
2023-01-29T01:47:44.989Z,4.27
2023-01-29T01:50:22.020Z,4.20
2023-01-29T01:52:52.052Z,4.63
2023-01-29T01:55:21.476Z,5.47
2023-01-29T01:57:50.654Z,4.37
2023-01-29T02:00:18.589Z,6.50
2023-01-29T02:03:04.809Z,5.10
2023-01-29T02:05:51.477Z,5.53
2023-01-29T02:08:42.238Z,5.13
2023-01-29T02:11:08.884Z,6.17
2023-01-29T02:13:35.896Z,7.80
2023-01-29T02:16:02.444Z,6.00
2023-01-29T02:18:28.972Z,6.73
2023-01-29T02:21:13.984Z,5.33
2023-01-29T02:23:59.473Z,4.50
2023-01-29T02:26:31.877Z,5.87
2023-01-29T02:29:27.231Z,5.30
2023-01-29T02:32:14.498Z,5.47
2023-01-29T02:35:02.797Z,4.53
2023-01-29T02:37:34.968Z,4.53
2023-01-29T02:40:09.293Z,4.97
2023-01-29T02:42:38.816Z,4.83
2023-01-29T02:45:34.682Z,4.20
2023-01-29T02:48:02.026Z,4.97
2023-01-29T02:50:34.214Z,4.37
2023-01-29T02:53:09.449Z,5.10
2023-01-29T02:55:48.602Z,4.33
2023-01-29T02:58:17.938Z,5.13
2023-01-29T03:00:45.636Z,4.83
2023-01-29T03:03:25.100Z,4.27
2023-01-29T03:05:58.487Z,5.77
2023-01-29T03:08:51.582Z,4.73
2023-01-29T03:11:18.346Z,4.17
2023-01-29T03:13:47.909Z,4.53
2023-01-29T03:16:31.510Z,5.43
2023-01-29T03:19:18.957Z,3.80
2023-01-29T03:21:53.775Z,4.00
2023-01-29T03:24:56.029Z,4.00
2023-01-29T03:27:45.690Z,4.00
2023-01-29T03:30:32.451Z,4.20
2023-01-29T03:33:26.303Z,4.10
2023-01-29T03:35:56.275Z,4.03
2023-01-29T03:38:22.972Z,5.70
2023-01-29T03:40:52.917Z,4.43
2023-01-29T03:43:35.755Z,3.97
2023-01-29T03:46:32.375Z,3.83
2023-01-29T03:49:11.625Z,3.80
2023-01-29T03:51:51.914Z,5.37
2023-01-29T03:54:26.417Z,3.83
2023-01-29T03:57:02.867Z,4.10
2023-01-29T03:59:42.659Z,4.03
2023-01-29T04:02:30.143Z,4.17
2023-01-29T04:05:02.169Z,3.63
2023-01-29T04:07:33.515Z,4.13
2023-01-29T04:10:09.387Z,4.20
2023-01-29T04:12:47.390Z,8.03
2023-01-29T04:15:15.491Z,4.20
2023-01-29T04:17:44.735Z,6.33
2023-01-29T04:20:22.217Z,4.57
2023-01-29T04:22:51.503Z,4.50
2023-01-29T04:25:29.489Z,3.80
2023-01-29T04:27:56.674Z,4.63
2023-01-29T04:30:33.468Z,4.40
2023-01-29T04:33:11.166Z,5.67
2023-01-29T04:35:47.759Z,4.33
2023-01-29T04:38:34.310Z,4.73
2023-01-29T04:41:05.385Z,4.33
2023-01-29T04:43:34.935Z,4.77
2023-01-29T04:46:14.074Z,4.20
2023-01-29T04:48:52.854Z,5.60
2023-01-29T04:51:21.835Z,4.93
2023-01-29T04:54:01.019Z,6.00
2023-01-29T04:56:50.768Z,5.07
2023-01-29T04:59:20.487Z,6.27
2023-01-29T05:01:48.090Z,5.93
2023-01-29T05:04:16.354Z,5.17
2023-01-29T05:06:43.586Z,6.13
2023-01-29T05:09:13.263Z,6.53
2023-01-29T05:11:40.452Z,6.00
2023-01-29T05:14:09.161Z,5.60
2023-01-29T05:16:42.102Z,6.13
2023-01-29T05:19:12.894Z,6.87
2023-01-29T05:21:41.179Z,6.23
2023-01-29T05:24:12.449Z,6.63
2023-01-29T05:26:57.394Z,6.17
2023-01-29T05:29:24.025Z,6.73
2023-01-29T05:31:50.575Z,7.17
2023-01-29T05:34:17.273Z,7.23
2023-01-29T05:36:43.783Z,6.40
2023-01-29T05:39:10.319Z,6.87
2023-01-29T05:41:36.832Z,7.33
2023-01-29T05:44:03.403Z,6.13
2023-01-29T05:46:29.989Z,7.57
2023-01-29T05:48:56.563Z,8.53
2023-01-29T05:51:23.080Z,8.37
2023-01-29T05:53:49.613Z,7.43
2023-01-29T05:56:16.150Z,7.10
2023-01-29T05:58:42.712Z,7.93
2023-01-29T06:01:10.614Z,8.03
2023-01-29T06:03:37.147Z,8.17
2023-01-29T06:06:03.784Z,8.17
2023-01-29T06:08:30.297Z,8.10
2023-01-29T06:10:56.874Z,7.90
2023-01-29T06:13:23.799Z,10.73
2023-01-29T06:15:50.417Z,7.70
2023-01-29T06:18:17.016Z,8.07
2023-01-29T06:20:43.523Z,8.37
2023-01-29T06:23:10.225Z,8.50
2023-01-29T06:25:36.785Z,8.67
2023-01-29T06:28:03.414Z,9.37
2023-01-29T06:30:29.997Z,8.43
2023-01-29T06:32:58.842Z,9.10
2023-01-29T06:35:25.713Z,10.27
2023-01-29T06:37:52.240Z,10.17
2023-01-29T06:40:19.172Z,8.97
2023-01-29T06:42:46.223Z,8.33
2023-01-29T06:45:12.798Z,8.77
2023-01-29T06:47:39.330Z,9.27
2023-01-29T06:50:06.083Z,10.47
2023-01-29T06:52:32.635Z,8.67
2023-01-29T06:54:59.139Z,8.73
2023-01-29T06:57:28.739Z,8.63
2023-01-29T06:59:55.196Z,9.40
2023-01-29T07:02:21.770Z,9.17
2023-01-29T07:04:48.431Z,8.97
2023-01-29T07:07:14.966Z,26.33
2023-01-29T07:09:41.902Z,10.83
2023-01-29T07:12:08.990Z,11.50
2023-01-29T07:14:35.643Z,12.23
2023-01-29T07:17:02.446Z,11.30
2023-01-29T07:19:29.046Z,10.47
2023-01-29T07:21:55.955Z,15.57
2023-01-29T07:24:22.576Z,12.17
2023-01-29T07:26:49.144Z,19.77
2023-01-29T07:29:15.691Z,21.13
2023-01-29T07:31:42.301Z,11.80
2023-01-29T07:34:08.893Z,10.10
2023-01-29T07:36:37.121Z,9.60
2023-01-29T07:39:03.788Z,11.73
2023-01-29T07:41:30.273Z,8.63
2023-01-29T07:43:59.415Z,11.80
2023-01-29T07:46:25.974Z,10.50
2023-01-29T07:48:52.474Z,11.73
2023-01-29T07:51:19.293Z,10.13
2023-01-29T07:53:45.911Z,13.63
2023-01-29T07:56:12.445Z,10.47
2023-01-29T07:58:39.009Z,10.03
2023-01-29T08:01:07.471Z,9.43
2023-01-29T08:03:34.043Z,10.27
2023-01-29T08:06:01.063Z,10.93
2023-01-29T08:08:27.642Z,9.77
2023-01-29T08:10:54.156Z,9.60
2023-01-29T08:13:20.848Z,10.60
2023-01-29T08:15:47.425Z,10.07
2023-01-29T08:18:14.757Z,10.27
2023-01-29T08:20:41.398Z,11.27
2023-01-29T08:23:10.283Z,9.53
2023-01-29T08:25:36.889Z,10.13
2023-01-29T08:28:03.942Z,9.50
2023-01-29T08:30:31.595Z,10.67
2023-01-29T08:32:58.496Z,9.80
2023-01-29T08:35:25.427Z,10.53
2023-01-29T08:37:55.687Z,9.60
2023-01-29T08:40:22.365Z,9.63
2023-01-29T08:42:48.929Z,10.57
2023-01-29T08:45:15.717Z,10.57
2023-01-29T08:47:49.020Z,9.20
2023-01-29T08:50:16.480Z,13.37
2023-01-29T08:52:43.660Z,9.37
2023-01-29T08:55:10.662Z,10.23
2023-01-29T08:57:37.687Z,9.93
2023-01-29T09:00:05.250Z,10.60
2023-01-29T09:02:32.071Z,11.13
2023-01-29T09:04:58.599Z,10.27
2023-01-29T09:07:25.263Z,10.33
2023-01-29T09:09:51.757Z,9.83
2023-01-29T09:12:18.294Z,10.73
2023-01-29T09:14:44.805Z,9.90
2023-01-29T09:17:11.341Z,11.27
2023-01-29T09:19:37.834Z,10.30
2023-01-29T09:22:04.333Z,10.67
2023-01-29T09:24:30.890Z,9.93
2023-01-29T09:26:57.384Z,10.27
2023-01-29T09:29:23.930Z,11.20
2023-01-29T09:31:50.515Z,11.33
2023-01-29T09:34:17.108Z,10.67
2023-01-29T09:36:43.674Z,11.37
2023-01-29T09:39:10.240Z,13.20
2023-01-29T09:42:11.957Z,10.63
2023-01-29T09:44:56.747Z,11.73
2023-01-29T09:47:24.487Z,11.17
2023-01-29T09:49:56.760Z,10.80
2023-01-29T09:52:23.323Z,12.07
2023-01-29T09:54:52.879Z,19.77
2023-01-29T09:57:22.774Z,14.23
2023-01-29T09:59:49.374Z,11.97
2023-01-29T10:02:34.541Z,11.80
2023-01-29T10:05:01.067Z,12.40
2023-01-29T10:07:42.857Z,11.63
2023-01-29T10:10:25.843Z,13.73
2023-01-29T10:12:55.206Z,12.10
2023-01-29T10:15:27.516Z,13.43
2023-01-29T10:18:05.630Z,14.47
2023-01-29T10:20:40.962Z,12.13
2023-01-29T10:23:13.395Z,13.40
2023-01-29T10:25:41.117Z,13.03
2023-01-29T10:28:16.017Z,14.57
2023-01-29T10:30:47.035Z,14.33
2023-01-29T10:33:17.581Z,13.13
2023-01-29T10:35:46.481Z,20.73
2023-01-29T10:38:28.443Z,26.20
2023-01-29T10:41:00.977Z,18.67
2023-01-29T10:43:27.463Z,13.07
2023-01-29T10:46:12.430Z,13.63
2023-01-29T10:48:59.133Z,12.50
2023-01-29T10:51:40.937Z,12.70
2023-01-29T10:54:26.236Z,12.37
2023-01-29T10:56:58.830Z,13.50
2023-01-29T10:59:43.974Z,11.47
2023-01-29T11:02:14.222Z,13.10
2023-01-29T11:04:40.656Z,13.90
2023-01-29T11:07:07.576Z,11.77
2023-01-29T11:09:44.020Z,12.73
2023-01-29T11:12:19.541Z,17.53
2023-01-29T11:14:55.935Z,12.17
2023-01-29T11:17:23.739Z,13.87
2023-01-29T11:19:51.690Z,14.23
2023-01-29T11:22:18.240Z,14.23
2023-01-29T11:24:44.784Z,14.53
2023-01-29T11:27:32.887Z,17.10
2023-01-29T11:29:59.338Z,15.07
2023-01-29T11:32:28.437Z,12.37
2023-01-29T11:35:06.005Z,16.97
2023-01-29T11:37:37.599Z,15.60
2023-01-29T11:40:19.443Z,12.93
2023-01-29T11:42:46.902Z,18.87
2023-01-29T11:45:27.533Z,14.20
2023-01-29T11:47:54.816Z,13.03
2023-01-29T11:50:25.818Z,17.23
2023-01-29T11:52:52.854Z,15.37
2023-01-29T11:55:21.982Z,14.67
2023-01-29T11:57:51.108Z,16.87
2023-01-29T12:00:20.886Z,13.53
2023-01-29T12:02:49.526Z,13.40
2023-01-29T12:05:20.189Z,12.47
2023-01-29T12:07:49.151Z,12.90
2023-01-29T12:10:35.911Z,12.43
2023-01-29T12:13:05.271Z,11.63
2023-01-29T12:15:31.795Z,14.47
2023-01-29T12:17:58.268Z,12.70
2023-01-29T12:20:29.066Z,12.73
2023-01-29T12:22:58.428Z,13.00
2023-01-29T12:25:43.685Z,14.50
2023-01-29T12:28:19.276Z,14.30
2023-01-29T12:30:53.978Z,14.63
2023-01-29T12:33:29.209Z,11.90
2023-01-29T12:36:02.954Z,12.33
2023-01-29T12:38:29.643Z,12.87
2023-01-29T12:40:56.135Z,13.70
2023-01-29T12:43:26.321Z,13.30
2023-01-29T12:45:54.972Z,12.63
2023-01-29T12:48:26.931Z,13.27
2023-01-29T12:50:54.990Z,15.13
2023-01-29T12:53:37.623Z,13.27
2023-01-29T12:56:13.151Z,14.23
2023-01-29T12:58:44.424Z,11.30
2023-01-29T13:01:22.078Z,13.80
2023-01-29T13:03:55.537Z,12.13
2023-01-29T13:06:59.322Z,12.40
2023-01-29T13:09:28.041Z,13.30
2023-01-29T13:11:58.496Z,12.83
2023-01-29T13:14:35.624Z,12.57
2023-01-29T13:17:07.628Z,20.27
2023-01-29T13:19:40.143Z,14.13
2023-01-29T13:22:14.719Z,14.13
2023-01-29T13:24:44.315Z,20.00
2023-01-29T13:27:31.670Z,12.87
2023-01-29T13:29:59.437Z,15.07
2023-01-29T13:32:27.681Z,14.47
2023-01-29T13:34:55.859Z,22.60
2023-01-29T13:37:28.361Z,13.80
2023-01-29T13:39:55.774Z,14.43
2023-01-29T13:42:24.953Z,15.90
2023-01-29T13:44:53.081Z,15.93
2023-01-29T13:47:39.896Z,12.23
2023-01-29T13:50:09.093Z,14.73
2023-01-29T13:52:44.448Z,14.63
2023-01-29T13:55:13.952Z,13.20
2023-01-29T13:57:46.299Z,16.90
2023-01-29T14:00:21.859Z,14.67
2023-01-29T14:03:13.883Z,15.13
2023-01-29T14:05:43.264Z,12.00
2023-01-29T14:08:09.726Z,12.10
2023-01-29T14:10:37.366Z,16.43
2023-01-29T14:13:03.858Z,13.97
2023-01-29T14:15:34.386Z,13.37
2023-01-29T14:18:05.712Z,21.67
2023-01-29T14:20:43.152Z,16.40
2023-01-29T14:23:21.307Z,18.13
2023-01-29T14:25:48.078Z,12.43
2023-01-29T14:28:21.245Z,13.20
2023-01-29T14:30:49.084Z,13.33
2023-01-29T14:33:48.290Z,13.37
2023-01-29T14:36:15.445Z,10.87
2023-01-29T14:38:47.817Z,11.83
2023-01-29T14:41:26.296Z,16.33
2023-01-29T14:44:12.735Z,13.70
2023-01-29T14:46:39.225Z,11.07
2023-01-29T14:49:07.638Z,10.93
2023-01-29T14:51:36.313Z,10.37
2023-01-29T14:54:04.833Z,13.73
2023-01-29T14:56:42.095Z,10.37
2023-01-29T14:59:13.294Z,12.10
2023-01-29T15:01:40.749Z,11.37
2023-01-29T15:04:12.098Z,13.70
2023-01-29T15:06:47.257Z,10.83
2023-01-29T15:09:16.829Z,13.60
2023-01-29T15:11:57.790Z,13.30
2023-01-29T15:14:28.879Z,14.80
2023-01-29T15:16:55.915Z,10.20
2023-01-29T15:19:25.769Z,14.53
2023-01-29T15:22:12.086Z,10.90
2023-01-29T15:24:39.263Z,10.67
2023-01-29T15:27:07.068Z,11.23
2023-01-29T15:29:33.655Z,12.27
2023-01-29T15:32:00.820Z,11.80
2023-01-29T15:34:27.494Z,10.60
2023-01-29T15:36:53.992Z,10.67
2023-01-29T15:39:24.651Z,10.70
2023-01-29T15:42:04.391Z,11.10
2023-01-29T15:44:30.935Z,10.30
2023-01-29T15:46:59.329Z,10.40
2023-01-29T15:49:30.979Z,11.23
2023-01-29T15:52:20.922Z,11.00
2023-01-29T15:54:47.679Z,13.87
2023-01-29T15:57:19.453Z,10.00
2023-01-29T15:59:46.028Z,10.23
2023-01-29T16:02:33.270Z,10.43
2023-01-29T16:04:59.897Z,10.20
2023-01-29T16:07:27.015Z,11.03
2023-01-29T16:09:54.035Z,11.60
2023-01-29T16:12:20.885Z,15.17
2023-01-29T16:14:48.692Z,13.13
2023-01-29T16:17:25.404Z,10.13
2023-01-29T16:19:59.859Z,11.07
2023-01-29T16:22:29.562Z,9.57
2023-01-29T16:24:56.181Z,9.80
2023-01-29T16:27:24.921Z,10.23
2023-01-29T16:29:51.728Z,13.33
2023-01-29T16:32:20.134Z,10.47
2023-01-29T16:34:52.123Z,10.97
2023-01-29T16:37:23.555Z,12.83
2023-01-29T16:39:52.355Z,8.83
2023-01-29T16:42:21.630Z,9.50
2023-01-29T16:44:57.125Z,11.70
2023-01-29T16:47:34.112Z,9.47
2023-01-29T16:50:19.296Z,9.70
2023-01-29T16:52:57.738Z,12.00
2023-01-29T16:55:25.518Z,10.20
2023-01-29T16:57:53.793Z,11.70
2023-01-29T17:00:25.468Z,10.03
2023-01-29T17:02:54.861Z,10.70
2023-01-29T17:05:23.009Z,12.93
2023-01-29T17:07:49.886Z,12.23
2023-01-29T17:10:20.462Z,11.83
2023-01-29T17:13:13.268Z,10.10
2023-01-29T17:15:45.870Z,10.23
2023-01-29T17:18:15.254Z,10.47
2023-01-29T17:20:41.758Z,10.13
2023-01-29T17:23:08.288Z,11.30
2023-01-29T17:25:34.823Z,14.30
2023-01-29T17:28:02.633Z,11.37
2023-01-29T17:30:31.507Z,10.90
2023-01-29T17:32:58.035Z,11.00
2023-01-29T17:35:24.669Z,9.83
2023-01-29T17:37:51.271Z,10.53
2023-01-29T17:40:29.788Z,11.47
2023-01-29T17:42:56.288Z,10.60
2023-01-29T17:45:22.958Z,10.07
2023-01-29T17:47:49.475Z,10.20
2023-01-29T17:50:23.091Z,9.43
2023-01-29T17:52:49.861Z,12.00
2023-01-29T17:55:17.078Z,11.00
2023-01-29T17:57:43.896Z,9.90
2023-01-29T18:00:20.910Z,10.97
2023-01-29T18:02:47.474Z,13.00
2023-01-29T18:05:14.836Z,10.30
2023-01-29T18:07:42.696Z,11.73
2023-01-29T18:10:20.029Z,11.07
2023-01-29T18:12:46.778Z,13.87
2023-01-29T18:15:13.843Z,12.00
2023-01-29T18:17:41.011Z,11.17
2023-01-29T18:20:15.523Z,10.70
2023-01-29T18:22:42.171Z,11.27
2023-01-29T18:25:08.956Z,12.17
2023-01-29T18:27:35.464Z,11.93
2023-01-29T18:30:02.003Z,13.03
2023-01-29T18:32:28.489Z,11.50
2023-01-29T18:34:55.120Z,11.67
2023-01-29T18:37:21.586Z,12.23
2023-01-29T18:39:48.105Z,12.33
2023-01-29T18:42:14.626Z,11.83
2023-01-29T18:44:41.204Z,11.10
2023-01-29T18:47:07.728Z,12.17
2023-01-29T18:49:36.166Z,12.37
2023-01-29T18:52:02.652Z,11.40
2023-01-29T18:54:29.508Z,11.83
2023-01-29T18:57:08.701Z,13.33
2023-01-29T18:59:41.155Z,12.40
2023-01-29T19:02:08.005Z,12.40
2023-01-29T19:04:34.546Z,15.63
2023-01-29T19:07:01.207Z,10.37
2023-01-29T19:09:27.924Z,12.53
2023-01-29T19:11:54.425Z,12.00
2023-01-29T19:14:21.005Z,12.20
2023-01-29T19:16:47.592Z,10.27
2023-01-29T19:19:14.143Z,9.90
2023-01-29T19:21:40.745Z,12.47
2023-01-29T19:24:10.025Z,14.40
2023-01-29T19:26:36.615Z,11.73
2023-01-29T19:29:03.465Z,12.23
2023-01-29T19:31:31.941Z,12.90
2023-01-29T19:33:58.822Z,11.50
2023-01-29T19:36:25.401Z,10.90
2023-01-29T19:38:51.949Z,10.07
2023-01-29T19:41:18.563Z,11.60
2023-01-29T19:43:46.283Z,9.97
2023-01-29T19:46:12.863Z,11.07
2023-01-29T19:48:39.349Z,11.60
2023-01-29T19:51:10.105Z,11.00
2023-01-29T19:53:38.187Z,11.97
2023-01-29T19:56:09.286Z,9.40
2023-01-29T19:58:36.527Z,11.17
2023-01-29T20:01:16.586Z,11.87
2023-01-29T20:03:46.374Z,10.30
2023-01-29T20:06:13.825Z,11.97
2023-01-29T20:08:40.349Z,10.90
2023-01-29T20:11:07.147Z,12.10
2023-01-29T20:13:33.965Z,11.20
2023-01-29T20:16:05.389Z,11.57
2023-01-29T20:18:32.173Z,12.43
2023-01-29T20:20:58.979Z,10.53
2023-01-29T20:23:37.310Z,11.00
2023-01-29T20:26:04.922Z,10.60
2023-01-29T20:28:31.563Z,10.63
2023-01-29T20:30:58.938Z,10.00
2023-01-29T20:33:26.502Z,12.70
2023-01-29T20:35:57.381Z,9.63
2023-01-29T20:38:24.108Z,11.07
2023-01-29T20:40:50.643Z,9.70
2023-01-29T20:43:17.484Z,10.67
2023-01-29T20:45:44.044Z,10.50
2023-01-29T20:48:10.782Z,13.00
2023-01-29T20:50:37.294Z,9.80
2023-01-29T20:53:03.970Z,9.77
2023-01-29T20:55:31.837Z,9.17
2023-01-29T20:58:06.419Z,10.70
2023-01-29T21:00:33.737Z,13.13
2023-01-29T21:03:01.269Z,10.23
2023-01-29T21:05:29.387Z,10.00
2023-01-29T21:07:55.941Z,10.07
2023-01-29T21:10:23.140Z,10.03
2023-01-29T21:12:52.053Z,9.13
2023-01-29T21:15:19.127Z,11.30
2023-01-29T21:17:48.403Z,10.13
2023-01-29T21:20:15.314Z,12.27
2023-01-29T21:22:44.467Z,9.90
2023-01-29T21:25:18.249Z,10.53
2023-01-29T21:27:45.684Z,9.43
2023-01-29T21:30:12.809Z,9.43
2023-01-29T21:32:39.703Z,9.33
2023-01-29T21:35:06.648Z,10.23
2023-01-29T21:37:39.476Z,8.57
2023-01-29T21:40:06.705Z,7.83
2023-01-29T21:42:51.953Z,8.93
2023-01-29T21:45:18.599Z,9.70
2023-01-29T21:47:46.085Z,8.87
2023-01-29T21:50:14.300Z,10.23
2023-01-29T21:52:43.306Z,9.33
2023-01-29T21:55:11.271Z,12.30
2023-01-29T21:57:41.159Z,14.63
2023-01-29T22:00:09.715Z,11.80
2023-01-29T22:02:36.420Z,10.05
2023-01-29T22:05:18.275Z,11.23
2023-01-29T22:07:46.563Z,12.50
2023-01-29T22:10:14.906Z,13.13
2023-01-29T22:12:44.728Z,8.27
2023-01-29T22:15:11.667Z,8.40
2023-01-29T22:17:43.742Z,8.53
2023-01-29T22:20:11.963Z,10.93
2023-01-29T22:22:38.771Z,9.37
2023-01-29T22:25:07.680Z,12.93
2023-01-29T22:27:37.679Z,10.40
2023-01-29T22:30:09.924Z,10.67
2023-01-29T22:32:36.463Z,13.00
2023-01-29T22:35:03.028Z,10.77
2023-01-29T22:37:32.824Z,16.53
2023-01-29T22:40:01.219Z,9.47
2023-01-29T22:42:28.282Z,10.10
2023-01-29T22:44:55.340Z,13.50
2023-01-29T22:47:22.506Z,10.93
2023-01-29T22:49:53.122Z,11.37
2023-01-29T22:52:23.282Z,10.03
2023-01-29T22:54:51.458Z,8.83
2023-01-29T22:57:20.171Z,10.83
2023-01-29T22:59:46.829Z,9.90
2023-01-29T23:02:16.204Z,8.70
2023-01-29T23:04:42.958Z,8.97
2023-01-29T23:07:09.868Z,8.33
2023-01-29T23:09:37.846Z,8.67
2023-01-29T23:12:05.940Z,9.37
2023-01-29T23:14:32.460Z,8.60
2023-01-29T23:16:59.110Z,8.57
2023-01-29T23:19:27.509Z,11.63
2023-01-29T23:21:55.925Z,9.23
2023-01-29T23:24:24.392Z,11.60
2023-01-29T23:27:12.630Z,13.03
2023-01-29T23:29:41.318Z,10.73
2023-01-29T23:32:10.715Z,8.77
2023-01-29T23:34:38.289Z,10.43
2023-01-29T23:37:11.859Z,10.67
2023-01-29T23:39:39.515Z,10.77
2023-01-29T23:42:07.405Z,9.67
2023-01-29T23:44:35.913Z,10.77
2023-01-29T23:47:03.470Z,10.70
2023-01-29T23:49:31.677Z,8.63
2023-01-29T23:51:58.640Z,9.70
2023-01-29T23:54:27.336Z,9.27
2023-01-29T23:56:57.914Z,10.93
2023-01-29T23:59:27.079Z,9.10
